SARS/PRQ METAR and TAF weather

Enter ICAO airport designator
Station Type Date Time Source
SARS METAR 2018/12/15 08:10 UTC NOAA

SARS 150810Z 16011G30KT 1500 TSRA SCT020 FEW040CB OVC045 21/20 Q1012


Station Type Date Time Source
SARS Decoded METAR 2018/12/15 08:10 UTC NOAA

Presidencia Roque Saenz Pena Aerodrome, Argentina (SARS) 26-49S 060-27W 92M
Dec 15, 2018 - 03:10 AM EST / 2018.12.15 0810 UTC
Wind: from the SSE (160 degrees) at 13 MPH (11 KT) gusting to 35 MPH (30 KT):0
Visibility: less than 1 mile:0
Sky conditions: overcast
Weather: rain with thunder; Cumulonimbus clouds observed
Temperature: 69 F (21 C)
Dew Point: 68 F (20 C)
Relative Humidity: 94%
Pressure (altimeter): 29.88 in. Hg (1012 hPa)
ob: SARS 150810Z 16011G30KT 1500 TSRA SCT020 FEW040CB OVC045 21/20 Q1012
cycle: 8

Station Type Date Time Source
SARS TAF UTC NOAA

Error!


Example: see airport list